createdAt,value
2022-10-01T00:01:00.321Z,10.02
2022-10-01T00:03:29.544Z,10.07
2022-10-01T00:06:12.133Z,8.55
2022-10-01T00:08:41.040Z,9.03
2022-10-01T00:11:14.201Z,9.68
2022-10-01T00:13:46.229Z,8.95
2022-10-01T00:16:16.313Z,9.93
2022-10-01T00:18:45.619Z,9.15
2022-10-01T00:21:16.581Z,8.87
2022-10-01T00:23:43.478Z,10.38
2022-10-01T00:26:14.934Z,7.50
2022-10-01T00:28:43.524Z,8.15
2022-10-01T00:31:10.604Z,7.35
2022-10-01T00:33:38.661Z,6.00
2022-10-01T00:36:07.102Z,7.78
2022-10-01T00:38:34.483Z,7.20
2022-10-01T00:41:02.297Z,8.63
2022-10-01T00:43:31.829Z,5.68
2022-10-01T00:46:05.843Z,6.63
2022-10-01T00:48:39.691Z,7.78
2022-10-01T00:51:06.591Z,6.55
2022-10-01T00:53:33.735Z,7.57
2022-10-01T00:56:00.834Z,6.00
2022-10-01T00:58:27.718Z,6.40
2022-10-01T01:00:56.157Z,6.22
2022-10-01T01:03:23.368Z,6.00
2022-10-01T01:05:50.249Z,7.30
2022-10-01T01:08:17.888Z,5.20
2022-10-01T01:10:51.512Z,5.80
2022-10-01T01:13:24.811Z,4.80
2022-10-01T01:16:07.969Z,6.50
2022-10-01T01:18:43.120Z,6.25
2022-10-01T01:21:30.161Z,6.60
2022-10-01T01:24:15.319Z,6.87
2022-10-01T01:27:00.928Z,7.30
2022-10-01T01:29:38.549Z,4.63
2022-10-01T01:32:14.816Z,7.85
2022-10-01T01:34:45.365Z,7.80
2022-10-01T01:37:17.505Z,7.33
2022-10-01T01:39:48.955Z,5.55
2022-10-01T01:42:22.229Z,6.72
2022-10-01T01:44:51.361Z,6.18
2022-10-01T01:47:21.897Z,6.88
2022-10-01T01:49:50.964Z,6.20
2022-10-01T01:52:18.098Z,5.63
2022-10-01T01:54:49.768Z,5.22
2022-10-01T01:57:18.457Z,4.20
2022-10-01T01:59:46.559Z,4.93
2022-10-01T02:02:25.172Z,4.40
2022-10-01T02:05:00.295Z,3.83
2022-10-01T02:07:36.613Z,5.28
2022-10-01T02:10:10.284Z,4.97
2022-10-01T02:12:55.627Z,5.07
2022-10-01T02:15:36.057Z,4.83
2022-10-01T02:18:22.322Z,3.97
2022-10-01T02:21:09.928Z,4.72
2022-10-01T02:23:43.993Z,4.97
2022-10-01T02:26:16.299Z,5.40
2022-10-01T02:28:44.442Z,5.20
2022-10-01T02:31:12.782Z,5.88
2022-10-01T02:33:41.775Z,6.65
2022-10-01T02:36:11.234Z,3.95
2022-10-01T02:38:40.542Z,5.35
2022-10-01T02:41:11.606Z,5.00
2022-10-01T02:44:01.324Z,5.55
2022-10-01T02:46:38.028Z,4.55
2022-10-01T02:49:05.618Z,5.47
2022-10-01T02:51:48.315Z,5.75
2022-10-01T02:54:28.983Z,4.20
2022-10-01T02:57:15.872Z,4.40
2022-10-01T02:59:42.834Z,4.85
2022-10-01T03:02:10.037Z,4.75
2022-10-01T03:04:36.857Z,5.05
2022-10-01T03:07:04.459Z,4.80
2022-10-01T03:09:31.972Z,4.72
2022-10-01T03:12:00.230Z,5.00
2022-10-01T03:14:28.329Z,4.63
2022-10-01T03:16:55.074Z,5.25
2022-10-01T03:19:21.988Z,6.47
2022-10-01T03:21:51.797Z,5.38
2022-10-01T03:24:18.574Z,7.50
2022-10-01T03:26:45.993Z,5.45
2022-10-01T03:29:15.712Z,5.30
2022-10-01T03:31:42.442Z,5.37
2022-10-01T03:34:09.263Z,5.65
2022-10-01T03:36:35.936Z,5.80
2022-10-01T03:39:02.696Z,5.50
2022-10-01T03:41:29.467Z,8.15
2022-10-01T03:44:00.363Z,5.73
2022-10-01T03:46:27.495Z,6.47
2022-10-01T03:48:55.769Z,6.40
2022-10-01T03:51:22.486Z,5.90
2022-10-01T03:53:49.207Z,5.60
2022-10-01T03:56:16.686Z,7.30
2022-10-01T03:58:43.333Z,6.68
2022-10-01T04:01:10.072Z,5.93
2022-10-01T04:03:36.742Z,6.90
2022-10-01T04:06:03.532Z,6.00
2022-10-01T04:08:30.209Z,6.27
2022-10-01T04:10:56.954Z,6.05
2022-10-01T04:13:23.804Z,6.65
2022-10-01T04:15:50.605Z,5.70
2022-10-01T04:18:18.926Z,6.28
2022-10-01T04:20:45.669Z,5.73
2022-10-01T04:23:12.508Z,6.35
2022-10-01T04:25:39.161Z,5.63
2022-10-01T04:28:07.642Z,6.75
2022-10-01T04:30:40.260Z,5.63
2022-10-01T04:33:07.749Z,6.00
2022-10-01T04:35:34.932Z,6.55
2022-10-01T04:38:07.543Z,7.03
2022-10-01T04:40:36.583Z,6.82
2022-10-01T04:43:04.808Z,6.18
2022-10-01T04:45:34.021Z,6.00
2022-10-01T04:48:00.894Z,6.68
2022-10-01T04:50:27.883Z,7.40
2022-10-01T04:52:55.291Z,6.85
2022-10-01T04:55:23.789Z,5.97
2022-10-01T04:57:50.834Z,4.80
2022-10-01T05:00:20.629Z,5.32
2022-10-01T05:02:49.181Z,6.63
2022-10-01T05:05:17.382Z,5.60
2022-10-01T05:07:44.712Z,5.85
2022-10-01T05:10:18.002Z,4.10
2022-10-01T05:12:45.589Z,7.18
2022-10-01T05:15:13.077Z,5.72
2022-10-01T05:17:39.777Z,5.07
2022-10-01T05:20:08.478Z,4.40
2022-10-01T05:22:35.132Z,4.50
2022-10-01T05:25:02.179Z,5.78
2022-10-01T05:27:30.877Z,7.18
2022-10-01T05:29:57.572Z,7.20
2022-10-01T05:32:24.570Z,7.85
2022-10-01T05:34:53.650Z,7.70
2022-10-01T05:37:20.928Z,7.18
2022-10-01T05:39:47.866Z,5.22
2022-10-01T05:42:14.553Z,10.50
2022-10-01T05:44:46.088Z,6.88
2022-10-01T05:47:14.625Z,6.90
2022-10-01T05:49:44.549Z,7.47
2022-10-01T05:52:12.415Z,9.20
2022-10-01T05:54:39.177Z,9.82
2022-10-01T05:57:07.975Z,7.95
2022-10-01T05:59:35.411Z,6.53
2022-10-01T06:02:03.879Z,10.18
2022-10-01T06:04:30.711Z,9.77
2022-10-01T06:06:57.401Z,8.95
2022-10-01T06:09:24.089Z,8.88
2022-10-01T06:11:50.746Z,8.67
2022-10-01T06:14:17.472Z,8.80
2022-10-01T06:16:44.654Z,7.82
2022-10-01T06:19:11.394Z,6.55
2022-10-01T06:21:38.182Z,8.27
2022-10-01T06:24:05.220Z,7.80
2022-10-01T06:26:32.037Z,7.40
2022-10-01T06:28:58.796Z,10.82
2022-10-01T06:31:25.535Z,5.57
2022-10-01T06:33:52.271Z,8.65
2022-10-01T06:36:19.012Z,8.70
2022-10-01T06:38:49.361Z,7.15
2022-10-01T06:41:16.358Z,10.48
2022-10-01T06:43:43.047Z,15.68
2022-10-01T06:46:11.871Z,8.75
2022-10-01T06:48:38.592Z,9.43
2022-10-01T06:51:05.821Z,5.78
2022-10-01T06:53:32.628Z,5.68
2022-10-01T06:56:05.569Z,6.32
2022-10-01T06:58:32.408Z,7.28
2022-10-01T07:01:03.775Z,5.60
2022-10-01T07:03:31.493Z,8.82
2022-10-01T07:06:05.375Z,8.65
2022-10-01T07:08:33.122Z,11.15
2022-10-01T07:11:03.858Z,7.07
2022-10-01T07:13:30.800Z,5.93
2022-10-01T07:15:57.555Z,8.10
2022-10-01T07:18:24.510Z,6.60
2022-10-01T07:20:51.701Z,6.10
2022-10-01T07:23:18.540Z,8.98
2022-10-01T07:25:45.638Z,5.73
2022-10-01T07:28:17.904Z,5.60
2022-10-01T07:31:01.476Z,5.72
2022-10-01T07:33:31.348Z,6.43
2022-10-01T07:36:02.243Z,4.35
2022-10-01T07:38:29.347Z,6.00
2022-10-01T07:40:56.134Z,5.90
2022-10-01T07:43:23.143Z,7.97
2022-10-01T07:45:50.194Z,7.05
2022-10-01T07:48:17.141Z,5.97
2022-10-01T07:50:48.157Z,7.03
2022-10-01T07:53:15.096Z,8.13
2022-10-01T07:55:42.162Z,7.47
2022-10-01T07:58:09.730Z,8.95
2022-10-01T08:00:36.465Z,10.48
2022-10-01T08:03:05.949Z,6.20
2022-10-01T08:05:34.838Z,9.85
2022-10-01T08:08:07.089Z,4.75
2022-10-01T08:10:36.413Z,10.40
2022-10-01T08:13:08.279Z,8.13
2022-10-01T08:15:35.773Z,7.47
2022-10-01T08:18:04.340Z,8.93
2022-10-01T08:20:31.881Z,5.55
2022-10-01T08:23:06.553Z,6.05
2022-10-01T08:25:34.388Z,6.20
2022-10-01T08:28:01.484Z,6.50
2022-10-01T08:30:29.392Z,10.50
2022-10-01T08:32:57.660Z,6.47
2022-10-01T08:35:25.312Z,6.85
2022-10-01T08:37:52.659Z,8.07
2022-10-01T08:40:21.604Z,7.23
2022-10-01T08:43:06.312Z,7.97
2022-10-01T08:45:35.792Z,5.95
2022-10-01T08:48:12.920Z,10.13
2022-10-01T08:51:03.167Z,8.50
2022-10-01T08:53:53.791Z,11.47
2022-10-01T08:56:34.252Z,6.07
2022-10-01T08:59:10.193Z,7.15
2022-10-01T09:01:37.334Z,5.35
2022-10-01T09:04:05.774Z,10.55
2022-10-01T09:06:32.478Z,9.23
2022-10-01T09:09:17.832Z,3.38
2022-10-01T09:11:47.724Z,9.38
2022-10-01T09:14:34.190Z,9.90
2022-10-01T09:17:06.515Z,8.43
2022-10-01T09:19:47.776Z,6.73
2022-10-01T09:22:32.870Z,9.82
2022-10-01T09:25:21.489Z,6.40
2022-10-01T09:27:48.671Z,9.57
2022-10-01T09:30:24.778Z,5.20
2022-10-01T09:33:14.313Z,10.73
2022-10-01T09:35:49.982Z,7.00
2022-10-01T09:38:38.453Z,6.78
2022-10-01T09:41:06.188Z,5.18
2022-10-01T09:43:34.977Z,5.75
2022-10-01T09:46:03.698Z,7.37
2022-10-01T09:49:11.296Z,6.50
2022-10-01T09:51:45.576Z,7.93
2022-10-01T09:54:22.019Z,7.88
2022-10-01T09:57:01.625Z,5.80
2022-10-01T09:59:36.309Z,5.70
2022-10-01T10:02:12.608Z,6.80
2022-10-01T10:04:39.398Z,8.27
2022-10-01T10:07:06.251Z,4.80
2022-10-01T10:09:35.720Z,4.97
2022-10-01T10:12:03.241Z,4.70
2022-10-01T10:14:34.501Z,12.32
2022-10-01T10:17:16.770Z,6.78
2022-10-01T10:19:52.380Z,7.10
2022-10-01T10:22:25.877Z,5.93
2022-10-01T10:24:59.006Z,5.20
2022-10-01T10:27:27.746Z,7.07
2022-10-01T10:30:07.025Z,6.75
2022-10-01T10:32:33.771Z,3.53
2022-10-01T10:35:05.204Z,5.75
2022-10-01T10:37:37.133Z,6.23
2022-10-01T10:40:07.941Z,7.78
2022-10-01T10:42:38.744Z,8.25
2022-10-01T10:45:17.081Z,5.85
2022-10-01T10:47:52.661Z,4.60
2022-10-01T10:50:40.397Z,4.67
2022-10-01T10:53:22.682Z,6.13
2022-10-01T10:56:01.676Z,5.15
2022-10-01T10:58:33.844Z,5.80
2022-10-01T11:01:16.282Z,5.57
2022-10-01T11:03:48.362Z,6.10
2022-10-01T11:06:18.593Z,3.85
2022-10-01T11:08:57.105Z,5.63
2022-10-01T11:11:43.834Z,4.28
2022-10-01T11:14:39.190Z,5.38
2022-10-01T11:17:21.721Z,7.20
2022-10-01T11:20:20.973Z,4.93
2022-10-01T11:23:15.728Z,6.63
2022-10-01T11:26:10.716Z,6.97
2022-10-01T11:28:55.986Z,6.78
2022-10-01T11:31:41.604Z,8.53
2022-10-01T11:34:17.593Z,4.72
2022-10-01T11:37:13.174Z,6.90
2022-10-01T11:39:44.465Z,8.68
2022-10-01T11:42:22.268Z,5.47
2022-10-01T11:45:11.360Z,7.03
2022-10-01T11:47:55.725Z,5.38
2022-10-01T11:50:27.956Z,6.78
2022-10-01T11:53:06.239Z,5.38
2022-10-01T11:56:01.534Z,7.68
2022-10-01T11:58:54.080Z,4.60
2022-10-01T12:01:31.586Z,7.10
2022-10-01T12:04:03.960Z,5.97
2022-10-01T12:06:37.039Z,8.65
2022-10-01T12:09:21.082Z,5.70
2022-10-01T12:12:06.770Z,7.93
2022-10-01T12:14:54.159Z,4.55
2022-10-01T12:17:51.446Z,7.10
2022-10-01T12:20:41.380Z,7.18
2022-10-01T12:23:17.882Z,8.60
2022-10-01T12:26:05.256Z,8.70
2022-10-01T12:29:00.737Z,6.32
2022-10-01T12:32:00.011Z,5.57
2022-10-01T12:35:02.455Z,4.97
2022-10-01T12:37:50.645Z,6.03
2022-10-01T12:40:38.731Z,5.70
2022-10-01T12:43:37.365Z,6.75
2022-10-01T12:46:33.895Z,7.15
2022-10-01T12:49:13.075Z,6.78
2022-10-01T12:51:53.097Z,6.78
2022-10-01T12:54:44.083Z,6.37
2022-10-01T12:57:36.741Z,6.35
2022-10-01T13:00:18.824Z,5.20
2022-10-01T13:03:10.427Z,7.55
2022-10-01T13:05:54.106Z,4.97
2022-10-01T13:08:39.672Z,7.23
2022-10-01T13:11:20.574Z,5.43
2022-10-01T13:13:52.449Z,4.22
2022-10-01T13:16:49.096Z,5.28
2022-10-01T13:19:27.004Z,8.60
2022-10-01T13:22:07.888Z,6.00
2022-10-01T13:25:00.956Z,11.40
2022-10-01T13:27:33.917Z,9.35
2022-10-01T13:30:07.708Z,6.47
2022-10-01T13:33:00.909Z,3.78
2022-10-01T13:35:39.347Z,4.33
2022-10-01T13:38:17.496Z,4.40
2022-10-01T13:40:45.023Z,5.68
2022-10-01T13:43:21.746Z,5.28
2022-10-01T13:45:55.008Z,6.10
2022-10-01T13:48:29.502Z,3.43
2022-10-01T13:50:58.296Z,3.70
2022-10-01T13:53:27.316Z,7.50
2022-10-01T13:55:54.766Z,5.10
2022-10-01T13:58:24.987Z,7.38
2022-10-01T14:00:54.420Z,13.37
2022-10-01T14:03:39.450Z,10.38
2022-10-01T14:06:14.928Z,4.28
2022-10-01T14:08:47.821Z,10.20
2022-10-01T14:11:36.189Z,3.72
2022-10-01T14:14:31.616Z,6.73
2022-10-01T14:17:00.326Z,4.93
2022-10-01T14:19:28.269Z,4.95
2022-10-01T14:22:08.106Z,8.68
2022-10-01T14:25:12.601Z,6.57
2022-10-01T14:28:04.334Z,4.47
2022-10-01T14:30:56.941Z,6.78
2022-10-01T14:33:57.092Z,8.00
2022-10-01T14:36:41.852Z,8.02
2022-10-01T14:39:13.833Z,9.05
2022-10-01T14:41:40.922Z,9.47
2022-10-01T14:44:25.797Z,5.68
2022-10-01T14:46:56.211Z,7.80
2022-10-01T14:49:27.135Z,6.82
2022-10-01T14:52:01.950Z,5.80
2022-10-01T14:54:31.554Z,3.30
2022-10-01T14:56:59.042Z,6.68
2022-10-01T14:59:29.940Z,4.88
2022-10-01T15:02:02.384Z,2.30
2022-10-01T15:04:29.306Z,4.78
2022-10-01T15:07:04.775Z,5.23
2022-10-01T15:09:33.956Z,4.07
2022-10-01T15:12:01.197Z,7.43
2022-10-01T15:14:28.173Z,8.55
2022-10-01T15:16:55.062Z,6.88
2022-10-01T15:19:23.114Z,7.53
2022-10-01T15:21:56.516Z,8.45
2022-10-01T15:24:36.358Z,6.03
2022-10-01T15:27:03.750Z,4.68
2022-10-01T15:29:30.439Z,10.02
2022-10-01T15:31:58.249Z,5.97
2022-10-01T15:34:26.520Z,6.07
2022-10-01T15:36:54.681Z,3.28
2022-10-01T15:39:40.654Z,4.93
2022-10-01T15:42:31.511Z,6.30
2022-10-01T15:45:07.428Z,4.43
2022-10-01T15:47:49.358Z,6.85
2022-10-01T15:50:18.084Z,6.82
2022-10-01T15:52:51.489Z,4.22
2022-10-01T15:55:27.476Z,5.28
2022-10-01T15:58:15.262Z,6.63
2022-10-01T16:00:56.743Z,7.15
2022-10-01T16:03:27.410Z,6.40
2022-10-01T16:05:55.260Z,6.35
2022-10-01T16:08:25.493Z,6.45
2022-10-01T16:11:32.096Z,8.67
2022-10-01T16:14:20.081Z,7.95
2022-10-01T16:16:47.033Z,7.28
2022-10-01T16:19:31.302Z,8.07
2022-10-01T16:22:14.639Z,6.78
2022-10-01T16:24:52.724Z,5.87
2022-10-01T16:27:48.434Z,4.57
2022-10-01T16:30:27.124Z,7.13
2022-10-01T16:32:59.423Z,7.68
2022-10-01T16:35:32.633Z,5.55
2022-10-01T16:37:59.564Z,6.63
2022-10-01T16:40:31.780Z,6.70
2022-10-01T16:43:00.401Z,10.35
2022-10-01T16:45:32.605Z,5.75
2022-10-01T16:48:00.518Z,4.75
2022-10-01T16:50:27.209Z,7.93
2022-10-01T16:52:55.749Z,10.15
2022-10-01T16:55:25.258Z,7.75
2022-10-01T16:57:55.175Z,8.48
2022-10-01T17:00:24.490Z,7.70
2022-10-01T17:02:51.808Z,4.63
2022-10-01T17:05:25.422Z,5.13
2022-10-01T17:07:53.706Z,10.18
2022-10-01T17:10:22.518Z,7.43
2022-10-01T17:12:49.800Z,7.55
2022-10-01T17:15:26.373Z,6.67
2022-10-01T17:17:55.675Z,6.18
2022-10-01T17:20:23.796Z,7.35
2022-10-01T17:22:51.692Z,8.73
2022-10-01T17:25:22.260Z,6.38
2022-10-01T17:27:49.356Z,4.07
2022-10-01T17:30:16.588Z,11.82
2022-10-01T17:32:43.723Z,10.57
2022-10-01T17:35:11.689Z,7.78
2022-10-01T17:37:39.007Z,8.82
2022-10-01T17:40:06.758Z,7.50
2022-10-01T17:42:35.469Z,10.77
2022-10-01T17:45:04.373Z,6.80
2022-10-01T17:47:31.271Z,5.57
2022-10-01T17:50:00.130Z,6.57
2022-10-01T17:52:27.271Z,9.73
2022-10-01T17:54:53.939Z,4.90
2022-10-01T17:57:20.905Z,8.40
2022-10-01T17:59:47.627Z,9.68
2022-10-01T18:02:39.714Z,10.98
2022-10-01T18:05:04.058Z,8.53
2022-10-01T18:07:30.748Z,13.38
2022-10-01T18:09:57.501Z,11.02
2022-10-01T18:12:24.148Z,12.27
2022-10-01T18:14:50.921Z,15.25
2022-10-01T18:17:18.099Z,10.63
2022-10-01T18:19:53.711Z,11.25
2022-10-01T18:22:22.199Z,17.52
2022-10-01T18:24:49.119Z,9.02
2022-10-01T18:27:16.244Z,15.02
2022-10-01T18:29:43.203Z,12.43
2022-10-01T18:32:26.166Z,10.75
2022-10-01T18:34:59.309Z,8.77
2022-10-01T18:37:47.887Z,12.02
2022-10-01T18:40:21.351Z,9.68
2022-10-01T18:43:15.917Z,11.83
2022-10-01T18:46:17.892Z,12.35
2022-10-01T18:48:50.708Z,9.48
2022-10-01T18:51:51.952Z,13.70
2022-10-01T18:54:27.449Z,8.50
2022-10-01T18:57:05.977Z,6.93
2022-10-01T18:59:46.630Z,9.38
2022-10-01T19:02:33.290Z,7.90
2022-10-01T19:05:37.242Z,6.00
2022-10-01T19:08:20.869Z,6.85
2022-10-01T19:11:18.095Z,7.73
2022-10-01T19:14:19.947Z,6.25
2022-10-01T19:17:09.152Z,8.82
2022-10-01T19:20:13.953Z,5.65
2022-10-01T19:23:04.789Z,7.50
2022-10-01T19:25:54.697Z,6.30
2022-10-01T19:28:39.627Z,7.55
2022-10-01T19:31:22.079Z,7.68
2022-10-01T19:34:28.483Z,8.45
2022-10-01T19:37:02.150Z,4.05
2022-10-01T19:39:36.101Z,6.47
2022-10-01T19:42:18.714Z,7.65
2022-10-01T19:45:11.959Z,6.60
2022-10-01T19:47:50.737Z,7.78
2022-10-01T19:50:25.844Z,7.72
2022-10-01T19:52:55.589Z,7.97
2022-10-01T19:55:24.738Z,7.03
2022-10-01T19:57:52.773Z,6.45
2022-10-01T20:00:21.820Z,12.65
2022-10-01T20:03:06.201Z,8.40
2022-10-01T20:05:58.581Z,13.13
2022-10-01T20:08:36.289Z,8.35
2022-10-01T20:11:35.792Z,8.43
2022-10-01T20:14:36.156Z,8.23
2022-10-01T20:17:11.801Z,11.68
2022-10-01T20:19:44.146Z,13.40
2022-10-01T20:23:06.427Z,10.90
2022-10-01T20:25:44.756Z,11.40
2022-10-01T20:28:33.513Z,10.25
2022-10-01T20:31:14.150Z,9.82
2022-10-01T20:33:51.663Z,9.43
2022-10-01T20:36:18.321Z,9.38
2022-10-01T20:39:26.931Z,11.93
2022-10-01T20:41:54.944Z,13.13
2022-10-01T20:44:27.239Z,10.30
2022-10-01T20:47:00.914Z,12.13
2022-10-01T20:49:43.526Z,8.38
2022-10-01T20:52:21.957Z,12.73
2022-10-01T20:55:28.894Z,12.15
2022-10-01T20:58:33.078Z,13.23
2022-10-01T21:01:08.014Z,13.20
2022-10-01T21:03:39.358Z,13.35
2022-10-01T21:06:15.784Z,12.63
2022-10-01T21:09:03.014Z,15.48
2022-10-01T21:11:47.848Z,16.63
2022-10-01T21:14:25.975Z,15.60
2022-10-01T21:17:08.041Z,13.32
2022-10-01T21:20:16.715Z,17.92
2022-10-01T21:23:05.118Z,13.35
2022-10-01T21:26:02.020Z,13.77
2022-10-01T21:28:44.080Z,13.67
2022-10-01T21:31:29.359Z,16.33
2022-10-01T21:34:12.959Z,22.05
2022-10-01T21:36:55.724Z,21.98
2022-10-01T21:39:36.547Z,15.63
2022-10-01T21:42:20.304Z,24.17
2022-10-01T21:45:16.516Z,26.15
2022-10-01T21:48:01.901Z,15.40
2022-10-01T21:50:44.428Z,17.17
2022-10-01T21:53:29.016Z,19.55
2022-10-01T21:56:20.585Z,15.80
2022-10-01T21:58:53.392Z,24.15
2022-10-01T22:01:47.896Z,19.58
2022-10-01T22:04:32.071Z,16.20
2022-10-01T22:07:17.442Z,21.35
2022-10-01T22:10:21.823Z,14.97
2022-10-01T22:12:51.848Z,11.77
2022-10-01T22:15:27.409Z,13.65
2022-10-01T22:17:55.104Z,7.47
2022-10-01T22:20:28.041Z,11.35
2022-10-01T22:22:58.628Z,13.17
2022-10-01T22:25:26.832Z,12.10
2022-10-01T22:28:07.251Z,15.13
2022-10-01T22:30:38.751Z,13.23
2022-10-01T22:33:29.396Z,8.52
2022-10-01T22:35:59.125Z,6.57
2022-10-01T22:38:56.793Z,3.20
2022-10-01T22:41:46.301Z,7.72
2022-10-01T22:44:16.178Z,5.20
2022-10-01T22:46:48.737Z,5.25
2022-10-01T22:49:58.521Z,6.67
2022-10-01T22:52:36.567Z,6.57
2022-10-01T22:55:37.133Z,5.63
2022-10-01T22:58:33.302Z,5.20
2022-10-01T23:01:15.324Z,7.22
2022-10-01T23:04:08.097Z,3.97
2022-10-01T23:06:40.716Z,5.68
2022-10-01T23:09:18.097Z,3.78
2022-10-01T23:12:02.935Z,5.95
2022-10-01T23:14:38.382Z,4.47
2022-10-01T23:17:36.236Z,3.83
2022-10-01T23:20:16.726Z,4.68
2022-10-01T23:23:02.171Z,7.35
2022-10-01T23:25:28.813Z,8.02
2022-10-01T23:28:30.180Z,6.97
2022-10-01T23:31:21.597Z,8.73
2022-10-01T23:34:28.143Z,7.15
2022-10-01T23:37:27.950Z,8.85
2022-10-01T23:40:14.728Z,8.00
2022-10-01T23:43:06.634Z,7.63
2022-10-01T23:46:04.676Z,10.27
2022-10-01T23:48:42.333Z,6.78
2022-10-01T23:51:34.394Z,7.28
2022-10-01T23:54:26.468Z,9.00
2022-10-01T23:57:07.626Z,5.18
2022-10-01T23:59:37.429Z,10.57
